Weather at Harvey Field

Public forecast

Using degrees Fahrenheit for public forecast. Weather courtesy of forecast.io.

Closest aviation weather report (METAR) to Harvey Field

Closest report is Snohomish County (Paine Field) Airport, 7.1 nm (13.2 km) W. Retrieved 2021/09/25 20:53 UTC (60 minutes ago):

KPAE 252053Z 29005KT 10SM CLR 22/13 A2988 RMK AO2 SLP116 T02170133 58008

Closest aviation forecast (TAF) to Harvey Field

Closest forecast is Snohomish County (Paine Field) Airport, 7.1 nm (13.2 km) W. Retrieved 2021/09/25 18:24 UTC (3 hours ago):

TAF KPAE 251721Z 2518/2618 15004KT P6SM SKC FM260100 24006KT P6SM BKN250 FM260900 18006KT P6SM BKN120 FM261400 17009KT P6SM OVC100